Roza A — TCRB7 — position and weather

sailwx.info

Track history (hours):
 
Tides and Currents Weather Stations Pressure Air Temp Water Temp Dewpoint Dewpoint Depression Visibility Wind Speed Wind Dir Waves Ship Positions

Roza A

Last reported at 2014-Aug-29 05:09 UTC. Time now 2014-Aug-30 00:26 UTC.
Position N 40°46' E 029°43'.

Length 169 m; draft 8 m.

Type: Ship (hazmat cat A). MMSI: 271001057.

Date/timePositionNaut miles runAvg speedWind from/ knotsBaromVisibWave heightAir tempDewpointWater temp
2014-Aug-29 05:09N 40°46' E 029°43'0 0.0
2014-Aug-28 20:27N 40°46' E 029°43'5 4.9
2014-Aug-28 19:32N 40°45' E 029°37'8 8.4
2014-Aug-28 18:33N 40°44' E 029°26'9 9.2
2014-Aug-28 17:33N 40°44' E 029°14'1413.7
2014-Aug-28 16:33N 40°44' E 028°56'1212.4
2014-Aug-28 15:33N 40°51' E 028°42'7 0.2
2014-Aug-27 09:29N 40°57' E 028°41'4 0.2
2014-Aug-26 15:04N 40°56' E 028°36'8212.1
2014-Aug-26 08:20N 40°29' E 026°55'5711.5
2014-Aug-26 03:23N 39°56' E 025°54'1112.7
2014-Aug-26 02:32N 39°51' E 025°42'2812.1
2014-Aug-26 00:14N 39°45' E 025°06'90 2.3
2014-Aug-24 08:12N 38°18' E 024°34'914.3
2014-Aug-24 07:33N 38°10' E 024°39'1413.8
2014-Aug-24 06:31N 37°56' E 024°35'2914.6
2014-Aug-24 04:33N 37°36' E 024°09'1514.6
2014-Aug-24 03:33N 37°36' E 023°50'1312.8
2014-Aug-24 02:33N 37°45' E 023°39'1212.0
2014-Aug-24 01:33N 37°57' E 023°36'0 0.3
2014-Aug-24 00:32N 37°57' E 023°36'0 0.0
2014-Aug-23 23:32N 37°57' E 023°36'0 0.0
2014-Aug-23 22:32N 37°57' E 023°36'0 0.0
2014-Aug-23 21:32N 37°57' E 023°36'0 0.0
2014-Aug-23 20:32N 37°57' E 023°36'0 0.0
2014-Aug-23 19:32N 37°57' E 023°36'63 4.0
2014-Aug-23 03:34N 36°55' E 023°23'1414.0
2014-Aug-23 02:33N 36°41' E 023°20'1413.8
2014-Aug-23 01:33N 36°28' E 023°16'1110.6
2014-Aug-23 00:33N 36°24' E 023°04'1414.2
2014-Aug-22 23:33N 36°22' E 022°47'1614.5
2014-Aug-22 22:28N 36°18' E 022°28'33214.4
2014-Aug-21 23:27N 36°32' E 015°35'1314.2
2014-Aug-21 22:30N 36°32' E 015°19'1414.5
2014-Aug-21 21:33N 36°33' E 015°01'1414.4
2014-Aug-21 20:33N 36°37' E 014°44'1514.6
2014-Aug-21 19:33N 36°41' E 014°27'1514.6
2014-Aug-21 18:33N 36°46' E 014°10'1414.5
2014-Aug-21 17:33N 36°52' E 013°53'1414.1
2014-Aug-21 16:33N 36°58' E 013°37'1413.8
2014-Aug-21 15:33N 37°03' E 013°21'1414.1
2014-Aug-21 14:33N 37°09' E 013°05'1414.1
2014-Aug-21 13:33N 37°14' E 012°49'1413.8
2014-Aug-21 12:33N 37°22' E 012°34'1413.7
2014-Aug-21 11:33N 37°29' E 012°19'9514.6
2014-Aug-21 05:04N 38°21' E 010°39'5714.2
2014-Aug-21 01:04N 38°51' E 009°37'714.3
2014-Aug-21 00:34N 38°55' E 009°30'1514.6
2014-Aug-20 23:34N 39°03' E 009°14'1111.4
2014-Aug-20 22:33N 39°12' E 009°05'1 1.1
2014-Aug-20 21:31N 39°13' E 009°04'0 0.0
2014-Aug-20 20:31N 39°13' E 009°04'0 0.0
2014-Aug-20 19:31N 39°13' E 009°04'0 0.0
2014-Aug-20 18:31N 39°13' E 009°04'0 0.0
2014-Aug-20 17:07N 39°13' E 009°04'0 0.0
2014-Aug-20 16:31N 39°13' E 009°04'0 0.0
2014-Aug-20 15:31N 39°13' E 009°04'2 2.4
2014-Aug-20 14:32N 39°11' E 009°06'9 8.8
2014-Aug-20 13:33N 39°03' E 009°08'1010.3
2014-Aug-20 12:33N 38°54' E 009°00'1010.4
2014-Aug-20 11:33N 38°47' E 008°51'1010.1
2014-Aug-20 10:33N 38°47' E 008°38'1110.5
2014-Aug-20 09:33N 38°46' E 008°24'10 9.8
2014-Aug-20 08:33N 38°53' E 008°15'1110.7
2014-Aug-20 07:33N 39°01' E 008°07'1210.8
2014-Aug-20 06:28N 39°11' E 007°58'1111.0
2014-Aug-20 05:31N 39°21' E 007°52'1011.0
2014-Aug-20 04:33N 39°30' E 007°46'1111.3
2014-Aug-20 03:33N 39°40' E 007°39'2611.1
2014-Aug-20 01:13N 40°02' E 007°21'1810.7
2014-Aug-19 23:33N 40°17' E 007°10'1311.1
2014-Aug-19 22:21N 40°29' E 007°01'6914.4
2014-Aug-19 17:31N 41°30' E 006°16'1514.4
2014-Aug-19 16:28N 41°43' E 006°07'1614.2
2014-Aug-19 15:22N 41°57' E 005°57'1414.9
2014-Aug-19 14:27N 42°08' E 005°48'1213.5
2014-Aug-19 13:33N 42°19' E 005°40'1514.5
2014-Aug-19 12:32N 42°32' E 005°30'1414.4
2014-Aug-19 11:33N 42°44' E 005°20'1414.4
2014-Aug-19 10:34N 42°57' E 005°11'1414.3
2014-Aug-19 09:33N 43°09' E 005°02'1413.7
2014-Aug-19 08:34N 43°23' E 004°57'5 4.5
2014-Aug-19 07:31N 43°24' E 004°51'0 0.0
2014-Aug-19 06:31N 43°24' E 004°51'0 0.0
2014-Aug-19 05:31N 43°24' E 004°51'  
Track history (hours):
 
Tides and Currents Weather Stations Pressure Air Temp Water Temp Dewpoint Dewpoint Depression Visibility Wind Speed Wind Dir Waves Ship Positions

Roza A

Last reported at 2014-Aug-29 05:09 UTC. Time now 2014-Aug-30 00:26 UTC.
Position N 40°46' E 029°43'.

Length 169 m; draft 8 m.

Type: Ship (hazmat cat A). MMSI: 271001057.

Date/timePositionNaut miles runAvg speedWind from/ knotsBaromVisibWave heightAir tempDewpointWater temp
2014-Aug-29 05:09N 40°46' E 029°43'0 0.0
2014-Aug-28 20:27N 40°46' E 029°43'5 4.9
2014-Aug-28 19:32N 40°45' E 029°37'8 8.4
2014-Aug-28 18:33N 40°44' E 029°26'9 9.2
2014-Aug-28 17:33N 40°44' E 029°14'1413.7
2014-Aug-28 16:33N 40°44' E 028°56'1212.4
2014-Aug-28 15:33N 40°51' E 028°42'7 0.2
2014-Aug-27 09:29N 40°57' E 028°41'4 0.2
2014-Aug-26 15:04N 40°56' E 028°36'8212.1
2014-Aug-26 08:20N 40°29' E 026°55'5711.5
2014-Aug-26 03:23N 39°56' E 025°54'1112.7
2014-Aug-26 02:32N 39°51' E 025°42'2812.1
2014-Aug-26 00:14N 39°45' E 025°06'90 2.3
2014-Aug-24 08:12N 38°18' E 024°34'914.3
2014-Aug-24 07:33N 38°10' E 024°39'1413.8
2014-Aug-24 06:31N 37°56' E 024°35'2914.6
2014-Aug-24 04:33N 37°36' E 024°09'1514.6
2014-Aug-24 03:33N 37°36' E 023°50'1312.8
2014-Aug-24 02:33N 37°45' E 023°39'1212.0
2014-Aug-24 01:33N 37°57' E 023°36'0 0.3
2014-Aug-24 00:32N 37°57' E 023°36'0 0.0
2014-Aug-23 23:32N 37°57' E 023°36'0 0.0
2014-Aug-23 22:32N 37°57' E 023°36'0 0.0
2014-Aug-23 21:32N 37°57' E 023°36'0 0.0
2014-Aug-23 20:32N 37°57' E 023°36'0 0.0
2014-Aug-23 19:32N 37°57' E 023°36'63 4.0
2014-Aug-23 03:34N 36°55' E 023°23'1414.0
2014-Aug-23 02:33N 36°41' E 023°20'1413.8
2014-Aug-23 01:33N 36°28' E 023°16'1110.6
2014-Aug-23 00:33N 36°24' E 023°04'1414.2
2014-Aug-22 23:33N 36°22' E 022°47'1614.5
2014-Aug-22 22:28N 36°18' E 022°28'33214.4
2014-Aug-21 23:27N 36°32' E 015°35'1314.2
2014-Aug-21 22:30N 36°32' E 015°19'1414.5
2014-Aug-21 21:33N 36°33' E 015°01'1414.4
2014-Aug-21 20:33N 36°37' E 014°44'1514.6
2014-Aug-21 19:33N 36°41' E 014°27'1514.6
2014-Aug-21 18:33N 36°46' E 014°10'1414.5
2014-Aug-21 17:33N 36°52' E 013°53'1414.1
2014-Aug-21 16:33N 36°58' E 013°37'1413.8
2014-Aug-21 15:33N 37°03' E 013°21'1414.1
2014-Aug-21 14:33N 37°09' E 013°05'1414.1
2014-Aug-21 13:33N 37°14' E 012°49'1413.8
2014-Aug-21 12:33N 37°22' E 012°34'1413.7
2014-Aug-21 11:33N 37°29' E 012°19'9514.6
2014-Aug-21 05:04N 38°21' E 010°39'5714.2
2014-Aug-21 01:04N 38°51' E 009°37'714.3
2014-Aug-21 00:34N 38°55' E 009°30'1514.6
2014-Aug-20 23:34N 39°03' E 009°14'1111.4
2014-Aug-20 22:33N 39°12' E 009°05'1 1.1
2014-Aug-20 21:31N 39°13' E 009°04'0 0.0
2014-Aug-20 20:31N 39°13' E 009°04'0 0.0
2014-Aug-20 19:31N 39°13' E 009°04'0 0.0
2014-Aug-20 18:31N 39°13' E 009°04'0 0.0
2014-Aug-20 17:07N 39°13' E 009°04'0 0.0
2014-Aug-20 16:31N 39°13' E 009°04'0 0.0
2014-Aug-20 15:31N 39°13' E 009°04'2 2.4
2014-Aug-20 14:32N 39°11' E 009°06'9 8.8
2014-Aug-20 13:33N 39°03' E 009°08'1010.3
2014-Aug-20 12:33N 38°54' E 009°00'1010.4
2014-Aug-20 11:33N 38°47' E 008°51'1010.1
2014-Aug-20 10:33N 38°47' E 008°38'1110.5
2014-Aug-20 09:33N 38°46' E 008°24'10 9.8
2014-Aug-20 08:33N 38°53' E 008°15'1110.7
2014-Aug-20 07:33N 39°01' E 008°07'1210.8
2014-Aug-20 06:28N 39°11' E 007°58'1111.0
2014-Aug-20 05:31N 39°21' E 007°52'1011.0
2014-Aug-20 04:33N 39°30' E 007°46'1111.3
2014-Aug-20 03:33N 39°40' E 007°39'2611.1
2014-Aug-20 01:13N 40°02' E 007°21'1810.7
2014-Aug-19 23:33N 40°17' E 007°10'1311.1
2014-Aug-19 22:21N 40°29' E 007°01'6914.4
2014-Aug-19 17:31N 41°30' E 006°16'1514.4
2014-Aug-19 16:28N 41°43' E 006°07'1614.2
2014-Aug-19 15:22N 41°57' E 005°57'1414.9
2014-Aug-19 14:27N 42°08' E 005°48'1213.5
2014-Aug-19 13:33N 42°19' E 005°40'1514.5
2014-Aug-19 12:32N 42°32' E 005°30'1414.4
2014-Aug-19 11:33N 42°44' E 005°20'1414.4
2014-Aug-19 10:34N 42°57' E 005°11'1414.3
2014-Aug-19 09:33N 43°09' E 005°02'1413.7
2014-Aug-19 08:34N 43°23' E 004°57'5 4.5
2014-Aug-19 07:31N 43°24' E 004°51'0 0.0
2014-Aug-19 06:31N 43°24' E 004°51'0 0.0
2014-Aug-19 05:31N 43°24' E 004°51'  

Dump ship's entire track history